Mercedes, Argentina
Current Conditions -  °F | °C
As of 3:00 PM on Thursday 23 Oct 2014 (Local Time) from SARL Reporting Station
Clear Clear  
Wind Chill: 31°   Ceiling: Unl
Heat Index: 31°   Visibility: 6mi
Dew Point: 15°   Wind: 0mph
Humidity: 38%   Direction: NA
Pressure: 29.91"   Gusts: NA
Location:  29.2°S, 58.08°W
Report Text: SARL 231800Z 00000KT CAVOK 31/15 Q1013
Loading
Personal Weather Stations






























Interactive Weather Map
Tropical Storm Tracking
New forecast layout! Learn more

10-Day Weather Forecast

Advertisements
Track Severe Weather on mobile